This is the latest recevied weather packets stored in our database for station/object AA7DG. If no packets are shown the sender has not sent any weather packets the latest 10 day(s).
| Time | Temp. | Humidity | Pressure | Rain* | Wind** | Luminosity | Snow |
|---|---|---|---|---|---|---|---|
| 1777711805 | 10.56° C | 74% | 1017.3 hPa | - | - | - | - |
| 1777706417 | 11.67° C | 67% | 1017.3 hPa | - | - | - | - |
| 1777705805 | 12.22° C | 66% | 1016.9 hPa | - | - | - | - |
| 1777705503 | 12.22° C | 66% | 1016.9 hPa | - | - | - | - |
| 1777702817 | 13.33° C | 62% | 1016.9 hPa | - | - | - | - |
| 1777700739 | 13.89° C | 59% | 1016.9 hPa | - | - | - | - |
| 1777697429 | 15.56° C | 52% | 1016.6 hPa | - | - | - | - |
| 1777697120 | 15.56° C | 53% | 1016.6 hPa | - | - | - | - |
| 1777695918 | 16.11° C | 50% | 1016.5 hPa | - | - | - | - |
| 1777695607 | 16.67° C | 50% | 1016.3 hPa | - | - | - | - |
| 1777695325 | 16.67° C | 48% | 1016.3 hPa | - | - | - | - |
| 1777691406 | 20° C | 39% | 1015.7 hPa | - | - | - | - |
| 1777688101 | 23.89° C | 25% | 1015.2 hPa | - | - | - | - |
| 1777682701 | 25.56° C | 24% | 1015.7 hPa | - | - | - | - |
| 1777680609 | 25.56° C | 24% | 1015.9 hPa | - | - | - | - |
| 1777680302 | 25° C | 24% | 1015.9 hPa | - | - | - | - |
| 1777678501 | 25.56° C | 23% | 1015.9 hPa | - | - | - | - |
| 1777677906 | 26.11° C | 23% | 1016 hPa | - | - | - | - |
| 1777676700 | 26.67° C | 23% | 1016.3 hPa | - | - | - | - |
| 1777676401 | 26.11° C | 23% | 1016.3 hPa | - | - | - | - |
| 1777667717 | 25° C | 26% | 1017.6 hPa | - | - | - | - |
| 1777666206 | 25.56° C | 26% | 1017.9 hPa | - | - | - | - |
| 1777664701 | 25° C | 28% | 1017.9 hPa | - | - | - | - |
| 1777663801 | 23.33° C | 28% | 1018.1 hPa | - | - | - | - |
| 1777663502 | 24.44° C | 28% | 1018.3 hPa | - | - | - | - |
* Rain since midnight (hover to see other rain measurements)
** Current wind speed in m/s (hover to see current wind gust speed)